This is the latest recevied weather packets stored in our database for station/object K4AMF. If no packets are shown the sender has not sent any weather packets the latest 1 day(s).
| Time | Temp. | Humidity | Pressure | Rain* | Wind** | Luminosity | Snow |
|---|---|---|---|---|---|---|---|
| 1778095910 | 32.78° C | 44% | 1016 hPa | 0 mm | - | 602 W/m² | - |
| 1778095303 | 32.78° C | 46% | 1016 hPa | 0 mm | - | 545 W/m² | - |
| 1778094696 | 33.33° C | 44% | 1016.2 hPa | 0 mm | - | 629 W/m² | - |
| 1778094090 | 32.78° C | 45% | 1016.4 hPa | 0 mm | - | 674 W/m² | - |
| 1778093181 | 32.22° C | 48% | 1016.3 hPa | 0 mm | - | 699 W/m² | - |
| 1778092878 | 31.67° C | 49% | 1016.7 hPa | 0 mm | - | 614 W/m² | - |
| 1778091060 | 31.67° C | 51% | 1016.9 hPa | 0 mm | - | 690 W/m² | - |
| 1778090453 | 31.67° C | 50% | 1017.1 hPa | 0 mm | - | 717 W/m² | - |
| 1778089240 | 30.56° C | 55% | 1017.2 hPa | 0 mm | - | 717 W/m² | - |
| 1778088938 | 30.56° C | 55% | 1017.3 hPa | 0 mm | - | 753 W/m² | - |
| 1778087423 | 30° C | 57% | 1017.7 hPa | 0 mm | - | 277 W/m² | - |
| 1778085601 | 30.56° C | 58% | 1017.9 hPa | 0 mm | - | 601 W/m² | - |
| 1778085295 | 28.89° C | 63% | 1018 hPa | 0 mm | - | 636 W/m² | - |
| 1778084990 | 28.89° C | 63% | 1018.1 hPa | 0 mm | - | 577 W/m² | - |
| 1778084688 | 28.89° C | 63% | 1018.3 hPa | 0 mm | - | 647 W/m² | - |
| 1778084380 | 28.89° C | 63% | 1018.3 hPa | 0 mm | - | 710 W/m² | - |
| 1778083164 | 28.33° C | 65% | 1018.5 hPa | 0 mm | - | 674 W/m² | - |
| 1778081743 | 27.22° C | 69% | 1018.5 hPa | 0 mm | - | 673 W/m² | - |
| 1778081440 | 27.78° C | 68% | 1018.3 hPa | 0 mm | - | 749 W/m² | - |
| 1778080533 | 26.67° C | 70% | 1018.4 hPa | 0 mm | - | 812 W/m² | - |
| 1778080230 | 26.67° C | 70% | 1018.5 hPa | 0 mm | - | 647 W/m² | - |
| 1778079926 | 26.67° C | 70% | 1018.4 hPa | 0 mm | - | 748 W/m² | - |
| 1778079320 | 27.22° C | 69% | 1018.4 hPa | 0 mm | - | 675 W/m² | - |
| 1778078714 | 26.11° C | 73% | 1018 hPa | 0 mm | - | 552 W/m² | - |
| 1778078109 | 26.11° C | 73% | 1018.2 hPa | 0 mm | - | 635 W/m² | - |
* Rain latest hour (hover to see other rain measurements)
** Current wind speed in m/s (hover to see current wind gust speed)